sensor_id;sensor_type;location;lat;lon;timestamp;temperature;humidity
27954;DHT22;15290;48.148;17.106;2022-11-27T00:01:46;5.30;99.90
27954;DHT22;15290;48.148;17.106;2022-11-27T00:04:13;5.20;99.90
27954;DHT22;15290;48.148;17.106;2022-11-27T00:06:39;5.20;99.90
27954;DHT22;15290;48.148;17.106;2022-11-27T00:09:09;5.20;99.90
27954;DHT22;15290;48.148;17.106;2022-11-27T00:11:35;5.20;99.90
27954;DHT22;15290;48.148;17.106;2022-11-27T00:14:08;5.30;99.90
27954;DHT22;15290;48.148;17.106;2022-11-27T00:16:35;5.20;99.90
27954;DHT22;15290;48.148;17.106;2022-11-27T00:19:01;5.30;99.90
27954;DHT22;15290;48.148;17.106;2022-11-27T00:21:29;5.30;99.90
27954;DHT22;15290;48.148;17.106;2022-11-27T00:23:57;5.30;99.90
27954;DHT22;15290;48.148;17.106;2022-11-27T00:26:27;5.30;99.90
27954;DHT22;15290;48.148;17.106;2022-11-27T00:28:53;5.30;99.90
27954;DHT22;15290;48.148;17.106;2022-11-27T00:31:21;5.30;99.90
27954;DHT22;15290;48.148;17.106;2022-11-27T00:33:47;5.20;99.90
27954;DHT22;15290;48.148;17.106;2022-11-27T00:36:14;5.30;99.90
27954;DHT22;15290;48.148;17.106;2022-11-27T00:38:40;5.30;99.90
27954;DHT22;15290;48.148;17.106;2022-11-27T00:41:07;5.30;99.90
27954;DHT22;15290;48.148;17.106;2022-11-27T00:43:34;5.40;99.90
27954;DHT22;15290;48.148;17.106;2022-11-27T00:46:00;5.50;99.90
27954;DHT22;15290;48.148;17.106;2022-11-27T00:48:26;5.50;99.90
27954;DHT22;15290;48.148;17.106;2022-11-27T00:50:58;5.60;99.90
27954;DHT22;15290;48.148;17.106;2022-11-27T00:53:24;5.70;99.90
27954;DHT22;15290;48.148;17.106;2022-11-27T00:55:50;5.80;99.90
27954;DHT22;15290;48.148;17.106;2022-11-27T00:58:16;5.80;99.90
27954;DHT22;15290;48.148;17.106;2022-11-27T01:00:42;5.80;99.90
27954;DHT22;15290;48.148;17.106;2022-11-27T01:03:08;5.90;99.90
27954;DHT22;15290;48.148;17.106;2022-11-27T01:05:35;5.90;99.90
27954;DHT22;15290;48.148;17.106;2022-11-27T01:08:02;5.90;99.90
27954;DHT22;15290;48.148;17.106;2022-11-27T01:10:28;5.90;99.90
27954;DHT22;15290;48.148;17.106;2022-11-27T01:12:53;5.80;99.90
27954;DHT22;15290;48.148;17.106;2022-11-27T01:15:19;5.80;99.90
27954;DHT22;15290;48.148;17.106;2022-11-27T01:17:46;5.80;99.90
27954;DHT22;15290;48.148;17.106;2022-11-27T01:20:12;5.70;99.90
27954;DHT22;15290;48.148;17.106;2022-11-27T01:22:38;5.70;99.90
27954;DHT22;15290;48.148;17.106;2022-11-27T01:25:04;5.70;99.90
27954;DHT22;15290;48.148;17.106;2022-11-27T01:27:30;5.70;99.90
27954;DHT22;15290;48.148;17.106;2022-11-27T01:29:56;5.80;99.90
27954;DHT22;15290;48.148;17.106;2022-11-27T01:32:22;5.80;99.90
27954;DHT22;15290;48.148;17.106;2022-11-27T01:34:47;5.80;99.90
27954;DHT22;15290;48.148;17.106;2022-11-27T01:37:13;5.80;99.90
27954;DHT22;15290;48.148;17.106;2022-11-27T01:39:41;5.90;99.90
27954;DHT22;15290;48.148;17.106;2022-11-27T01:42:10;5.90;99.90
27954;DHT22;15290;48.148;17.106;2022-11-27T01:47:04;5.80;99.90
27954;DHT22;15290;48.148;17.106;2022-11-27T01:52:02;5.80;99.90
27954;DHT22;15290;48.148;17.106;2022-11-27T01:54:33;5.80;99.90
27954;DHT22;15290;48.148;17.106;2022-11-27T01:57:06;5.80;99.90
27954;DHT22;15290;48.148;17.106;2022-11-27T01:59:33;5.80;99.90
27954;DHT22;15290;48.148;17.106;2022-11-27T02:01:59;5.80;99.90
27954;DHT22;15290;48.148;17.106;2022-11-27T02:04:25;5.70;99.90
27954;DHT22;15290;48.148;17.106;2022-11-27T02:06:51;5.70;99.90
27954;DHT22;15290;48.148;17.106;2022-11-27T02:09:18;5.70;99.90
27954;DHT22;15290;48.148;17.106;2022-11-27T02:14:38;5.60;99.90
27954;DHT22;15290;48.148;17.106;2022-11-27T02:17:21;5.60;99.90
27954;DHT22;15290;48.148;17.106;2022-11-27T02:31:39;5.50;99.90
27954;DHT22;15290;48.148;17.106;2022-11-27T02:37:14;5.40;99.90
27954;DHT22;15290;48.148;17.106;2022-11-27T02:39:52;5.30;99.90
27954;DHT22;15290;48.148;17.106;2022-11-27T02:42:20;5.30;99.90
27954;DHT22;15290;48.148;17.106;2022-11-27T02:44:54;5.30;99.90
27954;DHT22;15290;48.148;17.106;2022-11-27T02:47:22;5.30;99.90
27954;DHT22;15290;48.148;17.106;2022-11-27T02:49:50;5.30;99.90
27954;DHT22;15290;48.148;17.106;2022-11-27T02:52:18;5.30;99.90
27954;DHT22;15290;48.148;17.106;2022-11-27T02:54:45;5.30;99.90
27954;DHT22;15290;48.148;17.106;2022-11-27T02:57:13;5.30;99.90
27954;DHT22;15290;48.148;17.106;2022-11-27T02:59:41;5.30;99.90
27954;DHT22;15290;48.148;17.106;2022-11-27T03:02:13;5.30;99.90
27954;DHT22;15290;48.148;17.106;2022-11-27T03:04:46;5.20;99.90
27954;DHT22;15290;48.148;17.106;2022-11-27T03:07:23;5.20;99.90
27954;DHT22;15290;48.148;17.106;2022-11-27T03:09:51;5.20;99.90
27954;DHT22;15290;48.148;17.106;2022-11-27T03:12:20;5.10;99.90
27954;DHT22;15290;48.148;17.106;2022-11-27T03:14:46;5.10;99.90
27954;DHT22;15290;48.148;17.106;2022-11-27T03:19:58;5.10;99.90
27954;DHT22;15290;48.148;17.106;2022-11-27T03:22:25;5.10;99.90
27954;DHT22;15290;48.148;17.106;2022-11-27T03:24:52;5.00;99.90
27954;DHT22;15290;48.148;17.106;2022-11-27T03:27:23;5.00;99.90
27954;DHT22;15290;48.148;17.106;2022-11-27T03:29:58;4.90;99.90
27954;DHT22;15290;48.148;17.106;2022-11-27T03:32:26;4.90;99.90
27954;DHT22;15290;48.148;17.106;2022-11-27T03:34:52;4.90;99.90
27954;DHT22;15290;48.148;17.106;2022-11-27T03:37:19;4.80;99.90
27954;DHT22;15290;48.148;17.106;2022-11-27T03:39:45;4.80;99.90
27954;DHT22;15290;48.148;17.106;2022-11-27T03:51:09;4.70;99.90
27954;DHT22;15290;48.148;17.106;2022-11-27T03:56:30;4.60;99.90
27954;DHT22;15290;48.148;17.106;2022-11-27T03:59:02;4.60;99.90
27954;DHT22;15290;48.148;17.106;2022-11-27T04:01:30;4.70;99.90
27954;DHT22;15290;48.148;17.106;2022-11-27T04:03:56;4.60;99.90
27954;DHT22;15290;48.148;17.106;2022-11-27T04:06:21;4.60;99.90
27954;DHT22;15290;48.148;17.106;2022-11-27T04:08:47;4.60;99.90
27954;DHT22;15290;48.148;17.106;2022-11-27T04:11:13;4.60;99.90
27954;DHT22;15290;48.148;17.106;2022-11-27T04:13:39;4.60;99.90
27954;DHT22;15290;48.148;17.106;2022-11-27T04:16:06;4.50;99.90
27954;DHT22;15290;48.148;17.106;2022-11-27T04:18:31;4.50;99.90
27954;DHT22;15290;48.148;17.106;2022-11-27T04:20:57;4.50;99.90
27954;DHT22;15290;48.148;17.106;2022-11-27T04:23:24;4.40;99.90
27954;DHT22;15290;48.148;17.106;2022-11-27T04:25:50;4.40;99.90
27954;DHT22;15290;48.148;17.106;2022-11-27T04:28:16;4.40;99.90
27954;DHT22;15290;48.148;17.106;2022-11-27T04:30:43;4.40;99.90
27954;DHT22;15290;48.148;17.106;2022-11-27T04:33:09;4.40;99.90
27954;DHT22;15290;48.148;17.106;2022-11-27T04:35:34;4.30;99.90
27954;DHT22;15290;48.148;17.106;2022-11-27T04:38:00;4.30;99.90
27954;DHT22;15290;48.148;17.106;2022-11-27T04:40:26;4.30;99.90
27954;DHT22;15290;48.148;17.106;2022-11-27T04:42:51;4.30;99.90
27954;DHT22;15290;48.148;17.106;2022-11-27T04:45:17;4.30;99.90
27954;DHT22;15290;48.148;17.106;2022-11-27T04:47:43;4.40;99.90
27954;DHT22;15290;48.148;17.106;2022-11-27T04:50:09;4.40;99.90
27954;DHT22;15290;48.148;17.106;2022-11-27T04:52:35;4.50;99.90
27954;DHT22;15290;48.148;17.106;2022-11-27T04:55:00;4.50;99.90
27954;DHT22;15290;48.148;17.106;2022-11-27T04:57:27;4.50;99.90
27954;DHT22;15290;48.148;17.106;2022-11-27T04:59:52;4.60;99.90
27954;DHT22;15290;48.148;17.106;2022-11-27T05:02:18;4.60;99.90
27954;DHT22;15290;48.148;17.106;2022-11-27T05:04:44;4.60;99.90
27954;DHT22;15290;48.148;17.106;2022-11-27T05:07:10;4.60;99.90
27954;DHT22;15290;48.148;17.106;2022-11-27T05:09:35;4.50;99.90
27954;DHT22;15290;48.148;17.106;2022-11-27T05:12:01;4.60;99.90
27954;DHT22;15290;48.148;17.106;2022-11-27T05:14:27;4.50;99.90
27954;DHT22;15290;48.148;17.106;2022-11-27T05:16:56;4.50;99.90
27954;DHT22;15290;48.148;17.106;2022-11-27T05:19:24;4.50;99.90
27954;DHT22;15290;48.148;17.106;2022-11-27T05:21:51;4.50;99.90
27954;DHT22;15290;48.148;17.106;2022-11-27T05:24:19;4.50;99.90
27954;DHT22;15290;48.148;17.106;2022-11-27T05:26:45;4.40;99.90
27954;DHT22;15290;48.148;17.106;2022-11-27T05:29:12;4.40;99.90
27954;DHT22;15290;48.148;17.106;2022-11-27T05:31:38;4.40;99.90
27954;DHT22;15290;48.148;17.106;2022-11-27T05:34:04;4.40;99.90
27954;DHT22;15290;48.148;17.106;2022-11-27T05:36:31;4.40;99.90
27954;DHT22;15290;48.148;17.106;2022-11-27T05:38:56;4.40;99.90
27954;DHT22;15290;48.148;17.106;2022-11-27T05:41:23;4.30;99.90
27954;DHT22;15290;48.148;17.106;2022-11-27T05:43:48;4.40;99.90
27954;DHT22;15290;48.148;17.106;2022-11-27T05:46:16;4.30;99.90
27954;DHT22;15290;48.148;17.106;2022-11-27T05:48:42;4.30;99.90
27954;DHT22;15290;48.148;17.106;2022-11-27T05:51:08;4.40;99.90
27954;DHT22;15290;48.148;17.106;2022-11-27T05:53:34;4.40;99.90
27954;DHT22;15290;48.148;17.106;2022-11-27T05:56:06;4.40;99.90
27954;DHT22;15290;48.148;17.106;2022-11-27T05:58:33;4.50;99.90
27954;DHT22;15290;48.148;17.106;2022-11-27T06:01:01;4.40;99.90
27954;DHT22;15290;48.148;17.106;2022-11-27T06:03:27;4.50;99.90
27954;DHT22;15290;48.148;17.106;2022-11-27T06:05:53;4.40;99.90
27954;DHT22;15290;48.148;17.106;2022-11-27T06:08:19;4.50;99.90
27954;DHT22;15290;48.148;17.106;2022-11-27T06:10:45;4.50;99.90
27954;DHT22;15290;48.148;17.106;2022-11-27T06:13:12;4.50;99.90
27954;DHT22;15290;48.148;17.106;2022-11-27T06:15:38;4.40;99.90
27954;DHT22;15290;48.148;17.106;2022-11-27T06:18:04;4.50;99.90
27954;DHT22;15290;48.148;17.106;2022-11-27T06:20:30;4.40;99.90
27954;DHT22;15290;48.148;17.106;2022-11-27T06:22:56;4.40;99.90
27954;DHT22;15290;48.148;17.106;2022-11-27T06:25:22;4.40;99.90
27954;DHT22;15290;48.148;17.106;2022-11-27T06:27:48;4.40;99.90
27954;DHT22;15290;48.148;17.106;2022-11-27T06:30:14;4.40;99.90
27954;DHT22;15290;48.148;17.106;2022-11-27T06:32:40;4.40;99.90
27954;DHT22;15290;48.148;17.106;2022-11-27T06:35:06;4.40;99.90
27954;DHT22;15290;48.148;17.106;2022-11-27T06:37:32;4.40;99.90
27954;DHT22;15290;48.148;17.106;2022-11-27T06:39:58;4.40;99.90
27954;DHT22;15290;48.148;17.106;2022-11-27T06:42:24;4.40;99.90
27954;DHT22;15290;48.148;17.106;2022-11-27T06:44:49;4.40;99.90
27954;DHT22;15290;48.148;17.106;2022-11-27T06:47:15;4.40;99.90
27954;DHT22;15290;48.148;17.106;2022-11-27T06:49:41;4.40;99.90
27954;DHT22;15290;48.148;17.106;2022-11-27T06:52:07;4.40;99.90
27954;DHT22;15290;48.148;17.106;2022-11-27T06:54:32;4.40;99.90
27954;DHT22;15290;48.148;17.106;2022-11-27T06:56:58;4.40;99.90
27954;DHT22;15290;48.148;17.106;2022-11-27T06:59:24;4.40;99.90
27954;DHT22;15290;48.148;17.106;2022-11-27T07:01:49;4.40;99.90
27954;DHT22;15290;48.148;17.106;2022-11-27T07:04:15;4.40;99.90
27954;DHT22;15290;48.148;17.106;2022-11-27T07:06:42;4.40;99.90
27954;DHT22;15290;48.148;17.106;2022-11-27T07:09:08;4.40;99.90
27954;DHT22;15290;48.148;17.106;2022-11-27T07:11:34;4.40;99.90
27954;DHT22;15290;48.148;17.106;2022-11-27T07:14:02;4.50;99.90
27954;DHT22;15290;48.148;17.106;2022-11-27T07:16:30;4.50;99.90
27954;DHT22;15290;48.148;17.106;2022-11-27T07:19:02;4.50;99.90
27954;DHT22;15290;48.148;17.106;2022-11-27T07:21:29;4.50;99.90
27954;DHT22;15290;48.148;17.106;2022-11-27T07:23:54;4.50;99.90
27954;DHT22;15290;48.148;17.106;2022-11-27T07:26:24;4.50;99.90
27954;DHT22;15290;48.148;17.106;2022-11-27T07:28:51;4.50;99.90
27954;DHT22;15290;48.148;17.106;2022-11-27T07:31:19;4.50;99.90
27954;DHT22;15290;48.148;17.106;2022-11-27T07:33:45;4.60;99.90
27954;DHT22;15290;48.148;17.106;2022-11-27T07:36:23;4.60;99.90
27954;DHT22;15290;48.148;17.106;2022-11-27T07:38:49;4.70;99.90
27954;DHT22;15290;48.148;17.106;2022-11-27T07:41:16;4.80;99.90
27954;DHT22;15290;48.148;17.106;2022-11-27T07:43:43;4.80;99.90
27954;DHT22;15290;48.148;17.106;2022-11-27T07:46:20;4.90;99.90
27954;DHT22;15290;48.148;17.106;2022-11-27T07:48:46;4.90;99.90
27954;DHT22;15290;48.148;17.106;2022-11-27T07:51:14;5.00;99.90
27954;DHT22;15290;48.148;17.106;2022-11-27T07:53:41;5.10;99.90
27954;DHT22;15290;48.148;17.106;2022-11-27T07:56:09;5.20;99.90
27954;DHT22;15290;48.148;17.106;2022-11-27T07:58:35;5.20;99.90
27954;DHT22;15290;48.148;17.106;2022-11-27T08:01:08;5.30;99.90
27954;DHT22;15290;48.148;17.106;2022-11-27T08:03:34;5.30;99.90
27954;DHT22;15290;48.148;17.106;2022-11-27T08:06:00;5.40;99.90
27954;DHT22;15290;48.148;17.106;2022-11-27T08:08:25;5.40;99.90
27954;DHT22;15290;48.148;17.106;2022-11-27T08:10:51;5.50;99.90
27954;DHT22;15290;48.148;17.106;2022-11-27T08:13:17;5.50;99.90
27954;DHT22;15290;48.148;17.106;2022-11-27T08:15:42;5.50;99.90
27954;DHT22;15290;48.148;17.106;2022-11-27T08:18:11;5.50;99.90
27954;DHT22;15290;48.148;17.106;2022-11-27T08:20:37;5.60;99.90
27954;DHT22;15290;48.148;17.106;2022-11-27T08:23:03;5.60;99.90
27954;DHT22;15290;48.148;17.106;2022-11-27T08:25:30;5.60;99.90
27954;DHT22;15290;48.148;17.106;2022-11-27T08:27:56;5.70;99.90
27954;DHT22;15290;48.148;17.106;2022-11-27T08:30:22;5.80;99.90
27954;DHT22;15290;48.148;17.106;2022-11-27T08:32:50;5.80;99.90
27954;DHT22;15290;48.148;17.106;2022-11-27T08:35:16;5.90;99.90
27954;DHT22;15290;48.148;17.106;2022-11-27T08:37:42;5.90;99.90
27954;DHT22;15290;48.148;17.106;2022-11-27T08:40:08;6.00;99.90
27954;DHT22;15290;48.148;17.106;2022-11-27T08:42:35;6.00;99.90
27954;DHT22;15290;48.148;17.106;2022-11-27T08:45:00;6.10;99.90
27954;DHT22;15290;48.148;17.106;2022-11-27T08:47:26;6.10;99.90
27954;DHT22;15290;48.148;17.106;2022-11-27T08:49:52;6.10;99.90
27954;DHT22;15290;48.148;17.106;2022-11-27T08:52:17;6.20;99.90
27954;DHT22;15290;48.148;17.106;2022-11-27T08:54:45;6.20;99.90
27954;DHT22;15290;48.148;17.106;2022-11-27T08:57:11;6.30;99.90
27954;DHT22;15290;48.148;17.106;2022-11-27T08:59:36;6.30;99.90
27954;DHT22;15290;48.148;17.106;2022-11-27T09:02:02;6.40;99.90
27954;DHT22;15290;48.148;17.106;2022-11-27T09:04:28;6.40;99.90
27954;DHT22;15290;48.148;17.106;2022-11-27T09:06:53;6.50;99.90
27954;DHT22;15290;48.148;17.106;2022-11-27T09:09:19;6.60;99.90
27954;DHT22;15290;48.148;17.106;2022-11-27T09:11:46;6.60;99.90
27954;DHT22;15290;48.148;17.106;2022-11-27T09:14:12;6.60;99.90
27954;DHT22;15290;48.148;17.106;2022-11-27T09:16:38;6.70;99.90
27954;DHT22;15290;48.148;17.106;2022-11-27T09:19:04;6.70;99.90
27954;DHT22;15290;48.148;17.106;2022-11-27T09:21:30;6.70;99.90
27954;DHT22;15290;48.148;17.106;2022-11-27T09:23:57;6.70;99.90
27954;DHT22;15290;48.148;17.106;2022-11-27T09:26:24;6.70;99.90
27954;DHT22;15290;48.148;17.106;2022-11-27T09:28:54;6.70;99.90
27954;DHT22;15290;48.148;17.106;2022-11-27T09:31:21;6.80;99.90
27954;DHT22;15290;48.148;17.106;2022-11-27T09:33:47;6.80;99.90
27954;DHT22;15290;48.148;17.106;2022-11-27T09:36:16;6.80;99.90
27954;DHT22;15290;48.148;17.106;2022-11-27T09:38:43;6.80;99.90
27954;DHT22;15290;48.148;17.106;2022-11-27T09:43:52;6.90;99.90
27954;DHT22;15290;48.148;17.106;2022-11-27T09:46:41;6.90;99.90
27954;DHT22;15290;48.148;17.106;2022-11-27T09:49:13;6.90;99.90
27954;DHT22;15290;48.148;17.106;2022-11-27T09:52:02;6.90;99.90
27954;DHT22;15290;48.148;17.106;2022-11-27T09:57:03;7.00;99.90
27954;DHT22;15290;48.148;17.106;2022-11-27T09:59:42;7.00;99.90
27954;DHT22;15290;48.148;17.106;2022-11-27T10:02:26;7.00;99.90
27954;DHT22;15290;48.148;17.106;2022-11-27T10:04:53;7.00;99.90
27954;DHT22;15290;48.148;17.106;2022-11-27T10:13:05;7.20;99.90
27954;DHT22;15290;48.148;17.106;2022-11-27T10:15:43;7.20;99.90
27954;DHT22;15290;48.148;17.106;2022-11-27T10:20:43;7.40;99.90
27954;DHT22;15290;48.148;17.106;2022-11-27T10:23:32;7.40;99.90
27954;DHT22;15290;48.148;17.106;2022-11-27T10:26:05;7.50;99.90
27954;DHT22;15290;48.148;17.106;2022-11-27T10:28:52;7.50;99.90
27954;DHT22;15290;48.148;17.106;2022-11-27T10:34:40;7.70;99.90
27954;DHT22;15290;48.148;17.106;2022-11-27T10:37:17;7.70;99.90
27954;DHT22;15290;48.148;17.106;2022-11-27T10:45:51;7.90;99.90
27954;DHT22;15290;48.148;17.106;2022-11-27T10:48:19;7.90;99.90
27954;DHT22;15290;48.148;17.106;2022-11-27T10:50:45;7.90;99.90
27954;DHT22;15290;48.148;17.106;2022-11-27T10:53:31;8.00;99.90
27954;DHT22;15290;48.148;17.106;2022-11-27T10:56:28;8.00;99.90
27954;DHT22;15290;48.148;17.106;2022-11-27T10:59:01;8.00;99.90
27954;DHT22;15290;48.148;17.106;2022-11-27T11:01:47;8.00;99.90
27954;DHT22;15290;48.148;17.106;2022-11-27T11:04:14;8.10;99.90
27954;DHT22;15290;48.148;17.106;2022-11-27T11:06:44;8.10;99.90
27954;DHT22;15290;48.148;17.106;2022-11-27T11:09:25;8.20;99.90
27954;DHT22;15290;48.148;17.106;2022-11-27T11:14:38;8.30;99.90
27954;DHT22;15290;48.148;17.106;2022-11-27T11:17:14;8.30;99.90
27954;DHT22;15290;48.148;17.106;2022-11-27T11:19:40;8.40;99.90
27954;DHT22;15290;48.148;17.106;2022-11-27T11:22:17;8.40;99.90
27954;DHT22;15290;48.148;17.106;2022-11-27T11:24:51;8.40;99.90
27954;DHT22;15290;48.148;17.106;2022-11-27T11:27:36;8.60;99.90
27954;DHT22;15290;48.148;17.106;2022-11-27T11:30:23;8.70;99.20
27954;DHT22;15290;48.148;17.106;2022-11-27T11:32:49;8.80;98.60
27954;DHT22;15290;48.148;17.106;2022-11-27T11:35:28;8.90;98.10
27954;DHT22;15290;48.148;17.106;2022-11-27T11:37:56;8.90;97.80
27954;DHT22;15290;48.148;17.106;2022-11-27T11:40:32;8.90;97.80
27954;DHT22;15290;48.148;17.106;2022-11-27T11:43:05;9.00;97.60
27954;DHT22;15290;48.148;17.106;2022-11-27T11:45:43;9.10;97.50
27954;DHT22;15290;48.148;17.106;2022-11-27T11:48:23;9.20;97.10
27954;DHT22;15290;48.148;17.106;2022-11-27T11:56:50;9.90;96.30
27954;DHT22;15290;48.148;17.106;2022-11-27T12:09:58;10.40;94.20
27954;DHT22;15290;48.148;17.106;2022-11-27T12:12:36;10.40;94.00
27954;DHT22;15290;48.148;17.106;2022-11-27T12:15:55;10.60;93.90
27954;DHT22;15290;48.148;17.106;2022-11-27T12:21:13;10.80;92.30
27954;DHT22;15290;48.148;17.106;2022-11-27T12:26:53;10.90;91.90
27954;DHT22;15290;48.148;17.106;2022-11-27T12:29:44;10.90;91.80
27954;DHT22;15290;48.148;17.106;2022-11-27T12:35:09;11.00;91.20
27954;DHT22;15290;48.148;17.106;2022-11-27T12:38:13;11.00;91.20
27954;DHT22;15290;48.148;17.106;2022-11-27T12:43:37;11.30;90.40
27954;DHT22;15290;48.148;17.106;2022-11-27T12:46:18;11.30;90.10
27954;DHT22;15290;48.148;17.106;2022-11-27T12:57:08;10.70;90.40
27954;DHT22;15290;48.148;17.106;2022-11-27T12:59:47;10.80;90.30
27954;DHT22;15290;48.148;17.106;2022-11-27T13:05:05;11.10;89.70
27954;DHT22;15290;48.148;17.106;2022-11-27T13:16:04;11.20;88.50
27954;DHT22;15290;48.148;17.106;2022-11-27T13:18:40;11.10;88.10
27954;DHT22;15290;48.148;17.106;2022-11-27T13:21:27;11.00;87.70
27954;DHT22;15290;48.148;17.106;2022-11-27T13:23:54;11.00;87.80
27954;DHT22;15290;48.148;17.106;2022-11-27T13:29:26;10.90;87.50
27954;DHT22;15290;48.148;17.106;2022-11-27T13:31:55;10.90;86.60
27954;DHT22;15290;48.148;17.106;2022-11-27T13:34:25;10.80;86.30
27954;DHT22;15290;48.148;17.106;2022-11-27T13:37:03;10.80;86.10
27954;DHT22;15290;48.148;17.106;2022-11-27T13:39:33;10.80;85.90
27954;DHT22;15290;48.148;17.106;2022-11-27T13:42:17;10.70;85.60
27954;DHT22;15290;48.148;17.106;2022-11-27T13:44:52;10.80;86.10
27954;DHT22;15290;48.148;17.106;2022-11-27T13:47:20;10.70;85.10
27954;DHT22;15290;48.148;17.106;2022-11-27T13:49:59;10.70;84.80
27954;DHT22;15290;48.148;17.106;2022-11-27T13:52:26;10.70;84.40
27954;DHT22;15290;48.148;17.106;2022-11-27T13:55:06;10.70;84.30
27954;DHT22;15290;48.148;17.106;2022-11-27T13:57:35;10.60;84.00
27954;DHT22;15290;48.148;17.106;2022-11-27T14:00:06;10.60;84.80
27954;DHT22;15290;48.148;17.106;2022-11-27T14:02:58;10.60;83.90
27954;DHT22;15290;48.148;17.106;2022-11-27T14:05:44;10.50;84.40
27954;DHT22;15290;48.148;17.106;2022-11-27T14:08:19;10.50;83.90
27954;DHT22;15290;48.148;17.106;2022-11-27T14:10:50;10.40;84.00
27954;DHT22;15290;48.148;17.106;2022-11-27T14:13:16;10.30;84.20
27954;DHT22;15290;48.148;17.106;2022-11-27T14:15:42;10.30;84.40
27954;DHT22;15290;48.148;17.106;2022-11-27T14:18:21;10.20;84.60
27954;DHT22;15290;48.148;17.106;2022-11-27T14:21:01;10.10;84.90
27954;DHT22;15290;48.148;17.106;2022-11-27T14:23:36;10.10;85.10
27954;DHT22;15290;48.148;17.106;2022-11-27T14:28:40;10.10;85.50
27954;DHT22;15290;48.148;17.106;2022-11-27T14:33:47;10.00;86.20
27954;DHT22;15290;48.148;17.106;2022-11-27T14:36:30;10.00;86.40
27954;DHT22;15290;48.148;17.106;2022-11-27T14:39:00;10.00;86.60
27954;DHT22;15290;48.148;17.106;2022-11-27T14:41:27;9.90;86.70
27954;DHT22;15290;48.148;17.106;2022-11-27T14:44:00;9.90;86.80
27954;DHT22;15290;48.148;17.106;2022-11-27T14:46:26;9.90;86.80
27954;DHT22;15290;48.148;17.106;2022-11-27T14:48:53;9.80;86.70
27954;DHT22;15290;48.148;17.106;2022-11-27T14:51:27;9.80;86.70
27954;DHT22;15290;48.148;17.106;2022-11-27T14:53:57;9.80;88.20
27954;DHT22;15290;48.148;17.106;2022-11-27T14:56:28;9.60;87.00
27954;DHT22;15290;48.148;17.106;2022-11-27T14:58:56;9.60;89.00
27954;DHT22;15290;48.148;17.106;2022-11-27T15:01:25;9.50;89.80
27954;DHT22;15290;48.148;17.106;2022-11-27T15:04:05;9.20;88.10
27954;DHT22;15290;48.148;17.106;2022-11-27T15:06:44;9.10;88.90
27954;DHT22;15290;48.148;17.106;2022-11-27T15:09:19;9.00;89.80
27954;DHT22;15290;48.148;17.106;2022-11-27T15:11:53;8.90;90.60
27954;DHT22;15290;48.148;17.106;2022-11-27T15:14:21;8.80;90.30
27954;DHT22;15290;48.148;17.106;2022-11-27T15:16:49;8.70;90.60
27954;DHT22;15290;48.148;17.106;2022-11-27T15:19:29;8.70;91.00
27954;DHT22;15290;48.148;17.106;2022-11-27T15:21:56;8.60;92.00
27954;DHT22;15290;48.148;17.106;2022-11-27T15:27:18;8.30;92.80
27954;DHT22;15290;48.148;17.106;2022-11-27T15:32:21;8.00;94.60
27954;DHT22;15290;48.148;17.106;2022-11-27T15:34:50;8.00;95.40
27954;DHT22;15290;48.148;17.106;2022-11-27T15:37:30;7.90;96.20
27954;DHT22;15290;48.148;17.106;2022-11-27T15:39:59;8.00;96.90
27954;DHT22;15290;48.148;17.106;2022-11-27T15:42:27;8.00;97.30
27954;DHT22;15290;48.148;17.106;2022-11-27T15:44:56;8.10;97.60
27954;DHT22;15290;48.148;17.106;2022-11-27T15:47:33;8.10;97.90
27954;DHT22;15290;48.148;17.106;2022-11-27T15:49:59;8.10;98.20
27954;DHT22;15290;48.148;17.106;2022-11-27T15:59:44;8.00;98.90
27954;DHT22;15290;48.148;17.106;2022-11-27T16:02:11;7.90;99.30
27954;DHT22;15290;48.148;17.106;2022-11-27T16:04:37;7.90;99.40
27954;DHT22;15290;48.148;17.106;2022-11-27T16:07:03;7.80;99.60
27954;DHT22;15290;48.148;17.106;2022-11-27T16:09:29;7.80;99.70
27954;DHT22;15290;48.148;17.106;2022-11-27T16:11:55;7.80;99.80
27954;DHT22;15290;48.148;17.106;2022-11-27T16:14:21;7.70;99.90
27954;DHT22;15290;48.148;17.106;2022-11-27T16:16:47;7.70;99.90
27954;DHT22;15290;48.148;17.106;2022-11-27T16:19:13;7.60;99.90
27954;DHT22;15290;48.148;17.106;2022-11-27T16:21:40;7.50;99.90
27954;DHT22;15290;48.148;17.106;2022-11-27T16:24:07;7.50;99.90
27954;DHT22;15290;48.148;17.106;2022-11-27T16:26:34;7.40;99.90
27954;DHT22;15290;48.148;17.106;2022-11-27T16:29:01;7.40;99.90
27954;DHT22;15290;48.148;17.106;2022-11-27T16:31:28;7.30;99.90
27954;DHT22;15290;48.148;17.106;2022-11-27T16:33:54;7.20;99.90
27954;DHT22;15290;48.148;17.106;2022-11-27T16:36:20;7.10;99.90
27954;DHT22;15290;48.148;17.106;2022-11-27T16:38:46;7.00;99.90
27954;DHT22;15290;48.148;17.106;2022-11-27T16:41:15;7.00;99.90
27954;DHT22;15290;48.148;17.106;2022-11-27T16:43:46;7.00;99.90
27954;DHT22;15290;48.148;17.106;2022-11-27T16:46:17;6.90;99.90
27954;DHT22;15290;48.148;17.106;2022-11-27T16:48:44;6.90;99.90
27954;DHT22;15290;48.148;17.106;2022-11-27T16:51:16;6.80;99.90
27954;DHT22;15290;48.148;17.106;2022-11-27T16:53:44;6.80;99.90
27954;DHT22;15290;48.148;17.106;2022-11-27T16:56:12;6.80;99.90
27954;DHT22;15290;48.148;17.106;2022-11-27T16:58:40;6.80;99.90
27954;DHT22;15290;48.148;17.106;2022-11-27T17:01:12;6.80;99.90
27954;DHT22;15290;48.148;17.106;2022-11-27T17:03:39;6.70;99.90
27954;DHT22;15290;48.148;17.106;2022-11-27T17:06:13;6.70;99.90
27954;DHT22;15290;48.148;17.106;2022-11-27T17:08:40;6.70;99.90
27954;DHT22;15290;48.148;17.106;2022-11-27T17:11:14;6.60;99.90
27954;DHT22;15290;48.148;17.106;2022-11-27T17:13:42;6.50;99.90
27954;DHT22;15290;48.148;17.106;2022-11-27T17:16:08;6.50;99.90
27954;DHT22;15290;48.148;17.106;2022-11-27T17:18:38;6.50;99.90
27954;DHT22;15290;48.148;17.106;2022-11-27T17:21:09;6.50;99.90
27954;DHT22;15290;48.148;17.106;2022-11-27T17:23:36;6.50;99.90
27954;DHT22;15290;48.148;17.106;2022-11-27T17:26:09;6.50;99.90
27954;DHT22;15290;48.148;17.106;2022-11-27T17:28:36;6.50;99.90
27954;DHT22;15290;48.148;17.106;2022-11-27T17:31:02;6.50;99.90
27954;DHT22;15290;48.148;17.106;2022-11-27T17:33:32;6.50;99.90
27954;DHT22;15290;48.148;17.106;2022-11-27T17:35:58;6.50;99.90
27954;DHT22;15290;48.148;17.106;2022-11-27T17:38:24;6.60;99.90
27954;DHT22;15290;48.148;17.106;2022-11-27T17:40:50;6.50;99.90
27954;DHT22;15290;48.148;17.106;2022-11-27T17:43:16;6.70;99.90
27954;DHT22;15290;48.148;17.106;2022-11-27T17:45:41;6.80;99.90
27954;DHT22;15290;48.148;17.106;2022-11-27T17:48:07;6.70;99.90
27954;DHT22;15290;48.148;17.106;2022-11-27T17:50:35;6.60;99.90
27954;DHT22;15290;48.148;17.106;2022-11-27T17:53:01;6.70;99.90
27954;DHT22;15290;48.148;17.106;2022-11-27T17:55:26;6.60;99.90